Time;durP1;ratioP1;P1;durP2;ratioP2;P2;SDS_P1;SDS_P2;PMS_P1;PMS_P2;Temp;Humidity;BMP_temperature;BMP_pressure;BME280_temperature;BME280_humidity;BME280_pressure;Samples;Min_cycle;Max_cycle;Signal;HPM_P1;HPM_P2
2023/01/08 00:01:19;;;;;;;21.37;20.50;;;22.60;61.50;;;;;;5034808;28;20469;-66
2023/01/08 00:03:46;;;;;;;21.27;20.37;;;22.50;62.00;;;;;;5034677;28;20503;-66
2023/01/08 00:06:15;;;;;;;21.80;20.90;;;22.40;62.50;;;;;;5034761;28;20453;-66
2023/01/08 00:08:42;;;;;;;21.23;20.33;;;22.30;62.80;;;;;;5034711;28;20994;-66
2023/01/08 00:11:11;;;;;;;21.30;20.50;;;22.20;63.20;;;;;;5034428;28;21016;-64
2023/01/08 00:13:38;;;;;;;21.50;20.60;;;22.10;63.50;;;;;;5034449;28;20453;-64
2023/01/08 00:16:06;;;;;;;22.07;21.17;;;22.10;63.90;;;;;;5034815;28;20989;-64
2023/01/08 00:18:33;;;;;;;22.00;21.10;;;22.00;64.00;;;;;;5034390;28;20480;-64
2023/01/08 00:21:01;;;;;;;22.00;21.10;;;22.00;64.40;;;;;;5034179;28;20973;-63
2023/01/08 00:23:27;;;;;;;21.93;21.03;;;21.90;64.50;;;;;;5034530;28;20928;-64
2023/01/08 00:25:54;;;;;;;21.00;20.20;;;21.90;64.90;;;;;;5034433;28;20531;-64
2023/01/08 00:28:22;;;;;;;21.50;20.60;;;21.90;65.20;;;;;;5034222;28;20445;-65
2023/01/08 00:30:49;;;;;;;21.87;20.97;;;21.80;65.30;;;;;;5034350;28;20455;-64
2023/01/08 00:33:16;;;;;;;21.60;20.70;;;21.70;65.50;;;;;;5035117;28;20884;-63
2023/01/08 00:35:43;;;;;;;21.77;20.87;;;21.70;65.70;;;;;;5034159;28;20445;-67
2023/01/08 00:38:10;;;;;;;21.60;20.60;;;21.70;66.00;;;;;;5033795;28;20487;-67
2023/01/08 00:40:39;;;;;;;22.30;21.40;;;21.70;66.10;;;;;;5033788;28;20958;-64
2023/01/08 00:43:06;;;;;;;22.10;21.20;;;21.60;66.20;;;;;;5034044;28;20543;-65
2023/01/08 00:45:34;;;;;;;21.70;20.80;;;21.60;66.40;;;;;;5033726;28;20960;-64
2023/01/08 00:48:01;;;;;;;21.70;20.90;;;21.60;66.60;;;;;;5033619;28;20444;-64
2023/01/08 00:50:28;;;;;;;22.00;21.10;;;21.50;66.60;;;;;;5033727;28;20536;-65
2023/01/08 00:52:55;;;;;;;21.80;20.90;;;21.50;66.90;;;;;;5033753;28;20460;-65
2023/01/08 00:55:22;;;;;;;22.17;21.37;;;21.50;67.10;;;;;;5033751;28;20440;-65
2023/01/08 00:57:48;;;;;;;21.50;20.70;;;21.50;67.20;;;;;;5033693;28;20576;-64
2023/01/08 01:00:16;;;;;;;21.53;20.73;;;21.40;67.20;;;;;;5033450;28;20536;-64
2023/01/08 01:02:44;;;;;;;21.80;20.90;;;21.40;67.30;;;;;;5033635;28;20497;-64
2023/01/08 01:05:14;;;;;;;21.40;20.50;;;21.40;67.50;;;;;;5033474;28;20524;-64
2023/01/08 01:07:41;;;;;;;21.47;20.67;;;21.30;67.50;;;;;;5033545;28;20445;-64
2023/01/08 01:10:09;;;;;;;21.87;20.97;;;21.40;67.80;;;;;;5033629;28;20457;-64
2023/01/08 01:12:37;;;;;;;21.50;20.70;;;21.30;68.50;;;;;;5033442;28;20551;-64
2023/01/08 01:15:05;;;;;;;21.57;20.67;;;21.30;67.80;;;;;;5033497;28;20449;-64
2023/01/08 01:17:32;;;;;;;21.40;20.60;;;21.30;68.00;;;;;;5033075;28;20481;-64
2023/01/08 01:20:00;;;;;;;23.20;22.30;;;21.20;68.00;;;;;;5033239;28;20453;-64
2023/01/08 01:22:27;;;;;;;21.87;21.00;;;21.20;68.20;;;;;;5033472;28;20567;-64
2023/01/08 01:24:54;;;;;;;21.67;20.77;;;21.20;68.40;;;;;;5033303;28;20844;-63
2023/01/08 01:27:21;;;;;;;22.23;21.43;;;21.20;68.50;;;;;;5033241;28;20532;-64
2023/01/08 01:29:48;;;;;;;21.70;20.80;;;21.20;68.60;;;;;;5032948;28;20864;-64
2023/01/08 01:32:15;;;;;;;21.77;20.87;;;21.10;68.60;;;;;;5033008;28;20491;-64
2023/01/08 01:34:42;;;;;;;21.70;20.90;;;21.10;68.80;;;;;;5032897;28;20449;-64
2023/01/08 01:37:12;;;;;;;21.80;20.90;;;21.20;68.90;;;;;;5032894;28;20576;-63
2023/01/08 01:39:39;;;;;;;21.40;20.60;;;21.10;68.80;;;;;;5032818;28;20456;-64
2023/01/08 01:42:38;;;;;;;21.33;20.53;;;21.10;69.80;;;;;;5032774;28;20555;-63
2023/01/08 01:44:53;;;;;;;21.60;20.70;;;21.10;69.00;;;;;;5033092;28;20445;-64
2023/01/08 01:47:26;;;;;;;21.37;20.57;;;21.10;69.10;;;;;;5032884;28;20467;-63
2023/01/08 01:49:57;;;;;;;21.87;20.97;;;21.10;69.30;;;;;;5032406;28;20532;-64
2023/01/08 01:52:28;;;;;;;21.40;20.60;;;21.10;69.30;;;;;;5032643;28;20519;-64
2023/01/08 01:54:55;;;;;;;21.57;20.67;;;21.10;69.30;;;;;;5032662;28;20455;-64
2023/01/08 01:57:22;;;;;;;21.23;20.43;;;21.10;69.30;;;;;;5032535;28;20567;-64
2023/01/08 01:59:49;;;;;;;21.63;20.83;;;21.00;69.40;;;;;;5032246;28;20865;-64
2023/01/08 02:02:16;;;;;;;21.30;20.50;;;21.00;69.50;;;;;;5032418;28;20579;-63
2023/01/08 02:04:43;;;;;;;21.80;20.80;;;21.00;69.50;;;;;;5032157;28;20484;-64
2023/01/08 02:07:16;;;;;;;21.73;20.83;;;21.00;70.40;;;;;;5032327;28;20528;-64
2023/01/08 02:09:50;;;;;;;21.50;20.70;;;21.00;69.60;;;;;;5032207;28;20451;-63
2023/01/08 02:12:24;;;;;;;21.40;20.60;;;21.00;69.70;;;;;;5032470;28;20471;-64
2023/01/08 02:15:03;;;;;;;21.90;21.00;;;20.90;69.60;;;;;;5031966;28;20930;-64
2023/01/08 02:17:39;;;;;;;21.57;20.77;;;20.90;69.70;;;;;;5032347;28;20535;-64
2023/01/08 02:20:11;;;;;;;21.00;20.20;;;20.90;69.70;;;;;;5032389;28;21025;-64
2023/01/08 02:22:51;;;;;;;21.40;20.60;;;20.90;69.90;;;;;;5030154;28;20479;-64
2023/01/08 02:25:29;;;;;;;21.40;20.60;;;20.90;69.90;;;;;;5032322;28;20455;-64
2023/01/08 02:27:59;;;;;;;21.87;20.97;;;20.90;70.00;;;;;;5032133;28;20441;-62
2023/01/08 02:30:26;;;;;;;21.80;20.90;;;20.90;70.10;;;;;;5031964;28;20451;-64
2023/01/08 02:32:53;;;;;;;21.60;20.70;;;20.90;70.20;;;;;;5031983;28;20527;-64
2023/01/08 02:35:20;;;;;;;22.23;21.33;;;20.90;70.20;;;;;;5032347;28;20930;-64
2023/01/08 02:37:47;;;;;;;21.10;20.30;;;20.90;70.30;;;;;;5031851;28;20856;-64
2023/01/08 02:40:25;;;;;;;21.97;21.07;;;20.90;70.30;;;;;;5031793;28;20935;-64
2023/01/08 02:42:59;;;;;;;21.43;20.53;;;20.90;70.30;;;;;;5032143;28;20475;-64
2023/01/08 02:45:33;;;;;;;21.20;20.40;;;20.90;70.40;;;;;;5032133;28;20457;-65
2023/01/08 02:48:06;;;;;;;21.80;21.00;;;20.90;70.50;;;;;;5031922;28;20985;-64
2023/01/08 02:50:38;;;;;;;21.57;20.77;;;20.90;70.50;;;;;;5031643;28;20444;-66
2023/01/08 02:53:12;;;;;;;21.80;20.93;;;20.90;70.60;;;;;;5031499;28;20480;-65
2023/01/08 02:55:41;;;;;;;21.50;20.70;;;20.90;70.50;;;;;;5031960;28;20451;-65
2023/01/08 02:58:11;;;;;;;21.67;20.87;;;20.80;70.60;;;;;;5031789;28;20490;-65
2023/01/08 03:00:40;;;;;;;21.10;20.30;;;20.80;70.60;;;;;;5031516;28;20445;-64
2023/01/08 03:03:10;;;;;;;21.50;20.70;;;20.90;70.80;;;;;;5031682;28;20457;-65
2023/01/08 03:05:40;;;;;;;21.87;20.97;;;20.80;70.70;;;;;;5031869;28;20445;-65
2023/01/08 03:08:07;;;;;;;21.10;20.30;;;20.80;70.80;;;;;;5031592;28;20440;-64
2023/01/08 03:10:37;;;;;;;21.40;20.50;;;20.80;70.70;;;;;;5031250;28;20444;-64
2023/01/08 03:13:08;;;;;;;21.40;20.60;;;20.80;70.70;;;;;;5031586;28;20872;-64
2023/01/08 03:15:46;;;;;;;21.50;20.60;;;20.80;70.80;;;;;;5031600;28;20449;-63
2023/01/08 03:18:18;;;;;;;21.40;20.60;;;20.80;70.80;;;;;;5031480;28;20476;-64
2023/01/08 03:20:49;;;;;;;20.90;20.10;;;20.80;71.00;;;;;;5031047;28;21005;-64
2023/01/08 03:23:17;;;;;;;21.50;20.70;;;20.80;71.10;;;;;;5031678;28;20441;-64
2023/01/08 03:25:47;;;;;;;21.50;20.60;;;20.80;71.20;;;;;;5031233;28;20540;-64
2023/01/08 03:28:18;;;;;;;21.57;20.77;;;20.80;71.20;;;;;;5033669;28;20452;-64
2023/01/08 03:30:48;;;;;;;21.50;20.60;;;20.70;71.50;;;;;;5035115;28;20446;-63
2023/01/08 03:33:16;;;;;;;21.73;20.73;;;20.70;71.70;;;;;;5035492;28;20992;-64
2023/01/08 03:35:47;;;;;;;21.87;20.90;;;20.70;71.70;;;;;;5035336;28;20457;-63
2023/01/08 03:38:17;;;;;;;21.60;20.80;;;20.70;71.90;;;;;;5035278;28;20476;-63
2023/01/08 03:40:47;;;;;;;21.57;20.67;;;20.70;71.90;;;;;;5034801;28;20807;-64
2023/01/08 03:43:14;;;;;;;21.30;20.40;;;20.70;72.00;;;;;;5035463;28;20506;-63
2023/01/08 03:45:48;;;;;;;21.40;20.50;;;20.70;72.10;;;;;;5035230;28;20441;-64
2023/01/08 03:48:16;;;;;;;21.83;21.03;;;20.70;72.10;;;;;;5035090;28;20531;-64
2023/01/08 03:50:43;;;;;;;22.07;21.07;;;20.70;72.10;;;;;;5034430;28;20441;-64
2023/01/08 03:53:10;;;;;;;21.70;20.80;;;20.70;72.10;;;;;;5034916;28;20451;-64
2023/01/08 03:55:37;;;;;;;21.67;20.70;;;20.70;72.00;;;;;;5034999;28;20953;-64
2023/01/08 03:58:03;;;;;;;21.23;20.43;;;20.70;72.00;;;;;;5034486;28;20588;-63
2023/01/08 04:00:30;;;;;;;21.27;20.47;;;20.70;72.00;;;;;;5034650;28;20441;-64
2023/01/08 04:02:58;;;;;;;21.60;20.60;;;20.70;72.00;;;;;;5034865;28;21189;-63
2023/01/08 04:05:25;;;;;;;21.80;20.90;;;20.70;72.10;;;;;;5034731;28;20444;-63
2023/01/08 04:07:55;;;;;;;21.70;20.80;;;20.70;72.00;;;;;;5034589;28;20544;-64
2023/01/08 04:10:22;;;;;;;21.63;20.73;;;20.70;72.00;;;;;;5034495;28;21022;-64
2023/01/08 04:12:48;;;;;;;21.80;20.90;;;20.70;72.10;;;;;;5034624;28;20552;-64
2023/01/08 04:15:15;;;;;;;22.23;21.33;;;20.70;72.10;;;;;;5034723;28;20563;-63
2023/01/08 04:17:42;;;;;;;22.10;21.00;;;20.70;72.10;;;;;;5034465;28;20452;-65
2023/01/08 04:20:11;;;;;;;21.50;20.70;;;20.70;72.10;;;;;;5034016;28;20445;-63
2023/01/08 04:22:38;;;;;;;21.90;21.00;;;20.70;72.20;;;;;;5034462;28;20911;-64
2023/01/08 04:25:06;;;;;;;21.50;20.57;;;20.70;72.20;;;;;;5034335;28;20528;-64
2023/01/08 04:27:33;;;;;;;21.47;20.50;;;20.70;72.20;;;;;;5034414;28;20547;-62
2023/01/08 04:29:59;;;;;;;21.93;21.03;;;20.70;72.30;;;;;;5034007;28;20445;-63
2023/01/08 04:32:26;;;;;;;21.30;20.50;;;20.70;72.30;;;;;;5034315;28;20977;-64
2023/01/08 04:34:53;;;;;;;21.47;20.67;;;20.70;72.20;;;;;;5034302;28;20517;-63
2023/01/08 04:37:21;;;;;;;21.60;20.70;;;20.70;72.90;;;;;;5034231;28;20453;-63
2023/01/08 04:39:48;;;;;;;21.87;20.93;;;20.60;72.10;;;;;;5033546;28;20485;-63
2023/01/08 04:42:15;;;;;;;21.30;20.50;;;20.60;72.20;;;;;;5034218;28;20911;-63
2023/01/08 04:44:42;;;;;;;21.20;20.40;;;20.60;72.10;;;;;;5034167;28;20506;-63
2023/01/08 04:47:09;;;;;;;21.57;20.73;;;20.60;72.20;;;;;;5034229;28;20441;-63
2023/01/08 04:49:35;;;;;;;21.70;20.80;;;20.60;72.20;;;;;;5033877;28;20531;-64
2023/01/08 04:52:02;;;;;;;21.53;20.63;;;20.60;73.00;;;;;;5033601;28;20508;-63
2023/01/08 04:54:31;;;;;;;21.47;20.60;;;20.60;72.30;;;;;;5034083;28;20445;-63
2023/01/08 04:56:58;;;;;;;21.77;20.87;;;20.60;72.20;;;;;;5033964;28;20448;-63
2023/01/08 04:59:24;;;;;;;21.93;21.03;;;20.60;72.20;;;;;;5033647;28;20492;-63
2023/01/08 05:01:51;;;;;;;21.53;20.63;;;20.60;72.20;;;;;;5033494;28;20491;-62
2023/01/08 05:04:18;;;;;;;21.80;20.90;;;20.60;72.20;;;;;;5033801;28;20451;-63
2023/01/08 05:06:45;;;;;;;21.30;20.50;;;20.60;72.20;;;;;;5033791;28;20455;-63
2023/01/08 05:09:12;;;;;;;21.47;20.57;;;20.60;72.20;;;;;;5033287;28;20524;-63
2023/01/08 05:11:42;;;;;;;21.97;21.07;;;20.60;72.30;;;;;;5033398;28;20500;-63
2023/01/08 05:14:08;;;;;;;21.30;20.50;;;20.60;72.40;;;;;;5033817;28;20449;-64
2023/01/08 05:16:35;;;;;;;21.03;20.23;;;20.60;72.30;;;;;;5033692;28;20445;-64
2023/01/08 05:19:02;;;;;;;21.37;20.47;;;20.60;72.30;;;;;;5033205;28;20484;-63
2023/01/08 05:21:29;;;;;;;21.20;20.40;;;20.60;72.40;;;;;;5033907;28;20483;-65
2023/01/08 05:23:56;;;;;;;21.50;20.53;;;20.60;72.60;;;;;;5033073;28;20449;-65
2023/01/08 05:26:23;;;;;;;21.27;20.47;;;20.60;72.50;;;;;;5034153;28;20536;-66
2023/01/08 05:28:51;;;;;;;21.23;20.43;;;20.60;72.50;;;;;;5033485;28;20551;-66
2023/01/08 05:31:18;;;;;;;21.17;20.37;;;20.60;72.40;;;;;;5033096;28;20544;-66
2023/01/08 05:33:45;;;;;;;21.23;20.43;;;20.60;72.50;;;;;;5033185;28;20453;-65
2023/01/08 05:36:13;;;;;;;21.33;20.43;;;20.50;72.30;;;;;;5033180;28;20487;-65
2023/01/08 05:38:40;;;;;;;21.70;20.90;;;20.60;72.40;;;;;;5033084;28;20667;-65
2023/01/08 05:41:07;;;;;;;21.70;20.60;;;20.60;72.50;;;;;;5032767;28;20465;-66
2023/01/08 05:43:35;;;;;;;21.70;20.80;;;20.50;72.40;;;;;;5033245;28;20445;-64
2023/01/08 05:46:05;;;;;;;21.70;20.80;;;20.50;72.40;;;;;;5032942;28;20874;-65
2023/01/08 05:48:34;;;;;;;22.07;21.17;;;20.50;72.40;;;;;;5032949;28;20528;-66
2023/01/08 05:51:01;;;;;;;21.47;20.60;;;20.50;72.40;;;;;;5031689;28;20809;-65
2023/01/08 05:53:28;;;;;;;21.70;20.80;;;20.50;72.50;;;;;;5032989;28;20535;-65
2023/01/08 05:55:59;;;;;;;21.83;20.70;;;20.50;72.60;;;;;;5032749;28;20540;-64
2023/01/08 05:58:26;;;;;;;21.67;20.77;;;20.50;72.60;;;;;;5032846;28;20487;-65
2023/01/08 06:00:53;;;;;;;21.33;20.53;;;20.50;72.60;;;;;;5032416;28;20461;-65
2023/01/08 06:03:22;;;;;;;23.40;22.50;;;20.50;72.60;;;;;;5032558;28;20441;-65
2023/01/08 06:05:49;;;;;;;23.03;22.13;;;20.50;72.70;;;;;;5032354;28;20449;-65
2023/01/08 06:08:16;;;;;;;23.60;22.70;;;20.50;72.70;;;;;;5032681;28;20654;-65
2023/01/08 06:10:43;;;;;;;23.90;23.00;;;20.50;72.50;;;;;;5032496;28;20780;-66
2023/01/08 06:13:10;;;;;;;21.00;20.20;;;20.50;72.60;;;;;;5032174;28;20441;-64
2023/01/08 06:15:38;;;;;;;21.47;20.60;;;20.50;72.60;;;;;;5032400;28;20445;-65
2023/01/08 06:18:05;;;;;;;21.80;21.00;;;20.50;72.60;;;;;;5032261;28;20938;-66
2023/01/08 06:20:34;;;;;;;22.30;21.50;;;20.50;72.50;;;;;;5032169;28;20473;-66
2023/01/08 06:23:01;;;;;;;23.10;22.20;;;20.50;72.60;;;;;;5032391;28;20441;-65
2023/01/08 06:25:28;;;;;;;21.93;21.13;;;20.50;72.50;;;;;;5032343;28;20436;-65
2023/01/08 06:27:55;;;;;;;22.50;21.60;;;20.50;72.70;;;;;;5031910;28;20939;-65
2023/01/08 06:30:22;;;;;;;22.17;21.27;;;20.50;72.70;;;;;;5027605;28;20809;-65
2023/01/08 06:32:49;;;;;;;21.60;20.80;;;20.50;72.60;;;;;;5032045;28;20469;-65
2023/01/08 06:35:15;;;;;;;22.30;21.40;;;20.50;72.60;;;;;;5032199;28;20834;-65
2023/01/08 06:37:44;;;;;;;22.13;21.13;;;20.50;72.50;;;;;;5032511;28;20860;-65
2023/01/08 06:40:11;;;;;;;22.00;21.20;;;20.50;72.60;;;;;;5031704;28;20580;-65
2023/01/08 06:42:38;;;;;;;21.80;20.90;;;20.50;72.20;;;;;;5032088;28;20468;-65
2023/01/08 06:45:06;;;;;;;21.47;20.57;;;20.50;72.10;;;;;;5031607;28;20520;-65
2023/01/08 06:47:33;;;;;;;21.60;20.80;;;20.50;72.20;;;;;;5032052;28;20993;-65
2023/01/08 06:50:00;;;;;;;21.67;20.77;;;20.50;72.40;;;;;;5031625;28;20818;-65
2023/01/08 06:52:27;;;;;;;20.33;19.63;;;20.50;72.40;;;;;;5031655;28;20552;-65
2023/01/08 06:54:55;;;;;;;20.80;20.00;;;20.50;72.40;;;;;;5031507;28;20858;-65
2023/01/08 06:57:22;;;;;;;21.47;20.57;;;20.50;72.50;;;;;;5031708;28;20553;-64
2023/01/08 06:59:49;;;;;;;21.63;20.83;;;20.40;72.40;;;;;;5031600;28;20579;-65
2023/01/08 07:02:17;;;;;;;21.90;20.93;;;20.40;72.50;;;;;;5031083;28;20909;-65
2023/01/08 07:04:44;;;;;;;21.30;20.50;;;20.40;72.40;;;;;;5031739;28;20831;-67
2023/01/08 07:07:13;;;;;;;21.50;20.60;;;20.40;72.50;;;;;;5031630;28;20803;-65
2023/01/08 07:09:40;;;;;;;21.40;20.60;;;20.40;72.50;;;;;;5031221;28;20843;-65
2023/01/08 07:12:11;;;;;;;21.70;20.80;;;20.40;72.60;;;;;;5031378;28;20471;-65
2023/01/08 07:14:38;;;;;;;21.60;20.80;;;20.40;72.60;;;;;;5031536;28;20905;-66
2023/01/08 07:17:05;;;;;;;21.50;20.70;;;20.40;72.60;;;;;;5031414;28;20506;-66
2023/01/08 07:19:32;;;;;;;21.70;20.70;;;20.40;72.60;;;;;;5031454;28;20866;-66
2023/01/08 07:21:59;;;;;;;21.10;20.30;;;20.40;72.60;;;;;;5031294;28;20843;-66
2023/01/08 07:24:26;;;;;;;21.10;20.30;;;20.40;72.60;;;;;;5031478;28;20436;-66
2023/01/08 07:26:53;;;;;;;21.70;20.83;;;20.40;72.60;;;;;;5031202;28;20507;-65
2023/01/08 07:29:21;;;;;;;21.30;20.40;;;20.40;72.60;;;;;;5031330;28;20536;-66
2023/01/08 07:31:48;;;;;;;21.43;20.53;;;20.40;72.50;;;;;;5031222;28;20556;-65
2023/01/08 07:34:15;;;;;;;21.10;20.30;;;20.40;72.50;;;;;;5031451;28;20464;-66
2023/01/08 07:36:42;;;;;;;21.20;20.40;;;20.40;72.60;;;;;;5031481;28;20512;-66
2023/01/08 07:39:08;;;;;;;20.90;20.10;;;20.40;72.60;;;;;;5031193;28;20927;-66
2023/01/08 07:41:35;;;;;;;21.10;20.30;;;20.40;72.50;;;;;;5030815;28;20552;-65
2023/01/08 07:44:02;;;;;;;21.57;20.77;;;20.40;72.50;;;;;;5031382;28;20445;-64
2023/01/08 07:46:30;;;;;;;21.60;20.60;;;20.50;72.60;;;;;;5031277;28;20449;-64
2023/01/08 07:48:58;;;;;;;20.80;20.00;;;20.40;72.50;;;;;;5031226;28;20449;-66
2023/01/08 07:51:25;;;;;;;21.97;21.17;;;20.50;73.50;;;;;;5031034;28;20511;-66
2023/01/08 07:53:51;;;;;;;21.80;21.00;;;20.50;72.60;;;;;;5031314;28;20459;-65
2023/01/08 07:56:19;;;;;;;21.70;20.90;;;20.50;72.40;;;;;;5031118;28;20445;-64
2023/01/08 07:58:46;;;;;;;20.70;19.90;;;20.60;73.10;;;;;;5031319;28;20457;-61
2023/01/08 08:01:14;;;;;;;21.10;20.30;;;20.70;73.30;;;;;;5032261;28;21016;-64
2023/01/08 08:03:43;;;;;;;21.53;20.40;;;20.70;72.50;;;;;;5032310;28;20446;-65
2023/01/08 08:06:10;;;;;;;21.07;20.27;;;20.80;73.50;;;;;;5031511;28;20817;-65
2023/01/08 08:08:37;;;;;;;21.00;20.17;;;20.90;73.50;;;;;;5031875;28;20441;-64
2023/01/08 08:11:04;;;;;;;21.30;20.30;;;20.90;73.90;;;;;;5031548;28;20457;-64
2023/01/08 08:13:31;;;;;;;21.23;20.43;;;21.00;73.20;;;;;;5032516;28;20437;-64
2023/01/08 08:16:02;;;;;;;21.20;20.40;;;21.00;72.60;;;;;;5035289;28;20447;-66
2023/01/08 08:18:28;;;;;;;21.23;20.43;;;21.10;72.40;;;;;;5035094;28;20528;-64
2023/01/08 08:20:57;;;;;;;21.80;20.60;;;21.10;72.20;;;;;;5034845;28;21043;-65
2023/01/08 08:23:24;;;;;;;21.47;20.67;;;21.20;71.80;;;;;;5035144;28;20468;-65
2023/01/08 08:25:51;;;;;;;21.60;20.80;;;21.20;71.90;;;;;;5035279;28;20449;-65
2023/01/08 08:28:18;;;;;;;21.63;20.83;;;21.20;71.60;;;;;;5035133;28;20527;-65
2023/01/08 08:30:45;;;;;;;21.00;20.20;;;21.20;71.30;;;;;;5034291;28;20433;-65
2023/01/08 08:33:12;;;;;;;21.20;20.40;;;21.20;71.10;;;;;;5035404;28;20510;-64
2023/01/08 08:35:39;;;;;;;21.40;20.60;;;21.20;70.90;;;;;;5035150;28;20445;-64
2023/01/08 08:38:08;;;;;;;21.10;20.30;;;21.20;70.80;;;;;;5035486;28;20449;-65
2023/01/08 08:40:34;;;;;;;21.30;20.50;;;21.30;70.70;;;;;;5034873;28;20567;-66
2023/01/08 08:43:03;;;;;;;21.43;20.50;;;21.30;70.90;;;;;;5034811;28;21006;-64
2023/01/08 08:45:30;;;;;;;21.17;20.37;;;21.30;70.30;;;;;;5034599;28;20441;-67
2023/01/08 08:47:57;;;;;;;21.40;20.60;;;21.30;70.10;;;;;;5035482;28;20536;-58
2023/01/08 08:50:24;;;;;;;22.83;21.80;;;21.40;70.10;;;;;;5034422;28;20447;-64
2023/01/08 08:52:51;;;;;;;21.93;20.97;;;21.40;69.60;;;;;;5035041;28;20556;-65
2023/01/08 08:55:19;;;;;;;21.50;20.70;;;21.50;69.50;;;;;;5034544;28;21001;-64
2023/01/08 08:57:51;;;;;;;21.37;20.57;;;21.60;69.50;;;;;;5034955;28;20495;-64
2023/01/08 09:00:19;;;;;;;21.50;20.70;;;21.70;69.10;;;;;;5036041;28;20484;-64
2023/01/08 09:02:46;;;;;;;21.60;20.70;;;21.70;68.80;;;;;;5033856;28;20533;-65
2023/01/08 09:05:13;;;;;;;21.90;21.00;;;21.80;68.50;;;;;;5034468;28;20535;-64
2023/01/08 09:07:39;;;;;;;22.60;21.10;;;21.80;68.30;;;;;;5034984;28;20543;-63
2023/01/08 09:10:08;;;;;;;23.10;21.70;;;21.90;68.40;;;;;;5034770;28;20453;-63
2023/01/08 09:12:36;;;;;;;21.37;20.53;;;22.00;68.10;;;;;;5034327;28;20556;-63
2023/01/08 09:15:04;;;;;;;21.40;20.60;;;22.00;67.70;;;;;;5034145;28;20910;-65
2023/01/08 09:17:31;;;;;;;21.30;20.50;;;22.10;67.70;;;;;;5034572;28;20445;-64
2023/01/08 09:19:57;;;;;;;21.40;20.60;;;22.20;67.50;;;;;;5034634;28;20581;-64
2023/01/08 09:22:24;;;;;;;21.67;20.77;;;22.20;67.10;;;;;;5033911;28;20572;-63
2023/01/08 09:24:53;;;;;;;21.30;20.50;;;22.20;66.90;;;;;;5035867;28;20508;-63
2023/01/08 09:27:20;;;;;;;22.27;21.37;;;22.30;66.50;;;;;;5034424;28;20453;-63
2023/01/08 09:30:00;;;;;;;21.53;20.73;;;22.30;66.60;;;;;;5033191;28;20895;-64
2023/01/08 09:32:27;;;;;;;22.43;21.53;;;22.30;67.20;;;;;;5027915;28;20494;-61
2023/01/08 09:35:00;;;;;;;22.10;21.20;;;22.30;66.10;;;;;;5013425;28;21022;-62
2023/01/08 09:37:27;;;;;;;22.03;21.13;;;22.40;66.00;;;;;;5013470;28;20932;-63
2023/01/08 09:39:54;;;;;;;21.87;20.97;;;22.40;66.10;;;;;;5013377;28;20488;-64
2023/01/08 09:42:25;;;;;;;21.40;20.60;;;22.40;66.00;;;;;;5013216;28;20556;-63
2023/01/08 09:44:57;;;;;;;21.50;20.70;;;22.50;66.10;;;;;;5013738;28;20442;-64
2023/01/08 09:47:28;;;;;;;22.00;21.13;;;22.50;65.70;;;;;;5027048;28;20453;-59
2023/01/08 09:50:00;;;;;;;21.67;20.77;;;22.40;64.90;;;;;;5033672;28;20452;-63
2023/01/08 09:52:27;;;;;;;22.10;21.20;;;22.40;65.70;;;;;;5033190;28;20533;-64
2023/01/08 09:54:55;;;;;;;21.70;20.80;;;22.50;66.20;;;;;;5033005;28;20449;-64
2023/01/08 09:57:23;;;;;;;21.70;20.90;;;22.50;66.90;;;;;;5032820;28;20445;-65
2023/01/08 09:59:50;;;;;;;21.50;20.70;;;22.50;66.90;;;;;;5032517;28;20473;-64
2023/01/08 10:02:20;;;;;;;21.90;21.00;;;22.60;66.80;;;;;;5034209;28;20469;-65
2023/01/08 10:04:53;;;;;;;21.90;21.00;;;22.60;66.40;;;;;;5032730;28;20452;-63
2023/01/08 10:07:22;;;;;;;21.53;20.60;;;22.60;66.10;;;;;;5032948;28;20920;-63
2023/01/08 10:09:50;;;;;;;22.00;21.10;;;22.60;66.40;;;;;;5032589;28;20451;-63
2023/01/08 10:12:23;;;;;;;21.43;20.63;;;22.60;66.00;;;;;;5032192;28;20836;-64
2023/01/08 10:14:52;;;;;;;21.50;20.60;;;22.70;66.00;;;;;;5033436;28;20437;-67
2023/01/08 10:17:27;;;;;;;22.07;21.07;;;22.70;65.80;;;;;;5033128;28;20535;-68
2023/01/08 10:19:56;;;;;;;21.50;20.60;;;22.70;65.40;;;;;;5032012;28;20480;-65
2023/01/08 10:22:28;;;;;;;21.93;21.03;;;22.70;65.20;;;;;;5032502;28;20508;-67
2023/01/08 10:25:06;;;;;;;22.17;21.17;;;22.70;64.90;;;;;;5033008;28;20457;-66
2023/01/08 10:27:36;;;;;;;21.93;21.03;;;22.70;64.70;;;;;;5033556;28;20815;-67
2023/01/08 10:30:06;;;;;;;21.90;21.00;;;22.70;64.10;;;;;;5034267;28;20441;-67
2023/01/08 10:32:37;;;;;;;22.10;21.10;;;22.70;64.70;;;;;;5033138;28;20464;-65
2023/01/08 10:35:06;;;;;;;21.50;20.60;;;22.80;64.70;;;;;;5033191;28;20540;-64
2023/01/08 10:37:39;;;;;;;22.70;21.00;;;22.80;64.20;;;;;;5032394;28;20503;-65
2023/01/08 10:40:20;;;;;;;21.57;20.60;;;22.80;63.90;;;;;;5032740;28;21046;-65
2023/01/08 10:42:48;;;;;;;21.50;20.60;;;22.80;63.50;;;;;;5034122;28;20507;-66
2023/01/08 10:45:20;;;;;;;21.70;20.80;;;22.90;63.40;;;;;;5034351;28;20449;-65
2023/01/08 10:47:51;;;;;;;21.47;20.67;;;22.90;63.30;;;;;;5032835;28;20445;-65
2023/01/08 10:50:22;;;;;;;21.57;20.77;;;22.90;63.30;;;;;;5033298;28;20777;-66
2023/01/08 10:52:54;;;;;;;22.00;21.00;;;23.00;62.90;;;;;;5033792;28;20894;-65
2023/01/08 10:55:26;;;;;;;21.97;20.97;;;23.00;63.50;;;;;;5032820;28;20811;-65
2023/01/08 10:57:56;;;;;;;21.90;20.90;;;23.00;62.70;;;;;;5032366;28;20489;-66
2023/01/08 11:00:26;;;;;;;21.27;20.37;;;23.00;62.40;;;;;;5031832;28;20480;-66
2023/01/08 11:02:54;;;;;;;21.50;20.70;;;23.10;62.50;;;;;;5032271;28;20544;-65
2023/01/08 11:05:30;;;;;;;21.53;20.73;;;23.10;62.70;;;;;;5032331;28;20449;-65
2023/01/08 11:07:59;;;;;;;21.70;20.80;;;23.10;62.20;;;;;;5033947;28;20934;-70
2023/01/08 11:10:27;;;;;;;21.30;20.40;;;23.00;62.60;;;;;;5033578;28;20449;-69
2023/01/08 11:12:56;;;;;;;22.20;21.23;;;23.10;62.70;;;;;;5032890;28;20471;-70
2023/01/08 11:15:31;;;;;;;22.07;21.07;;;23.10;62.70;;;;;;5032667;28;20449;-68
2023/01/08 11:18:20;;;;;;;22.10;21.30;;;23.20;62.50;;;;;;5032905;28;20543;-70
2023/01/08 11:20:49;;;;;;;21.40;20.50;;;23.20;62.30;;;;;;5032130;28;20491;-69
2023/01/08 11:23:19;;;;;;;21.30;20.50;;;23.20;62.10;;;;;;5032567;28;20524;-66
2023/01/08 11:25:55;;;;;;;22.03;21.13;;;23.20;62.10;;;;;;5031931;28;20540;-69
2023/01/08 11:28:29;;;;;;;21.50;20.50;;;23.20;61.80;;;;;;5031667;28;20506;-68
2023/01/08 11:31:05;;;;;;;20.60;19.80;;;23.10;61.10;;;;;;5031736;28;20518;-62
2023/01/08 11:33:38;;;;;;;21.00;20.00;;;23.00;61.00;;;;;;5031407;28;20506;-62
2023/01/08 11:36:11;;;;;;;21.17;20.37;;;23.00;61.50;;;;;;5012389;28;20450;-60
2023/01/08 11:38:38;;;;;;;21.10;20.30;;;23.10;62.80;;;;;;5011934;28;20450;-60
2023/01/08 11:41:17;;;;;;;20.70;20.00;;;23.10;62.60;;;;;;5012029;28;20943;-61
2023/01/08 11:43:59;;;;;;;20.90;20.10;;;23.10;62.50;;;;;;5011974;28;20456;-61
2023/01/08 11:46:33;;;;;;;20.30;19.60;;;23.10;62.40;;;;;;5012772;28;20453;-63
2023/01/08 11:49:26;;;;;;;21.03;20.17;;;23.10;61.30;;;;;;5033287;28;20452;-64
2023/01/08 11:52:04;;;;;;;20.90;20.10;;;22.90;60.70;;;;;;5036072;28;20461;-66
2023/01/08 11:54:46;;;;;;;20.90;20.00;;;22.90;61.20;;;;;;5036038;28;20452;-68
2023/01/08 11:57:24;;;;;;;20.60;19.70;;;23.00;62.00;;;;;;5037222;28;20787;-67
2023/01/08 12:00:10;;;;;;;20.60;19.80;;;23.00;62.70;;;;;;5036859;28;20445;-64
2023/01/08 12:02:50;;;;;;;20.97;19.87;;;23.10;62.50;;;;;;5035045;28;20534;-56
2023/01/08 12:05:42;;;;;;;20.87;19.97;;;22.90;60.20;;;;;;5033850;28;20449;-61
2023/01/08 12:08:19;;;;;;;21.13;20.17;;;22.70;60.30;;;;;;5035209;28;20567;-62
2023/01/08 12:10:58;;;;;;;21.90;20.90;;;22.80;61.60;;;;;;5034724;28;20437;-63
2023/01/08 12:13:38;;;;;;;21.87;20.97;;;22.90;61.90;;;;;;5034969;28;20914;-62
2023/01/08 12:16:18;;;;;;;21.60;20.70;;;23.00;62.70;;;;;;5034895;28;20444;-63
2023/01/08 12:19:03;;;;;;;21.63;20.73;;;23.10;64.20;;;;;;5034837;28;20944;-60
2023/01/08 12:21:33;;;;;;;22.20;21.30;;;23.10;65.30;;;;;;5034158;28;20487;-62
2023/01/08 12:24:30;;;;;;;20.93;20.03;;;23.20;65.50;;;;;;5034605;28;20475;-65
2023/01/08 12:27:04;;;;;;;21.83;20.93;;;23.10;62.40;;;;;;5033940;28;20552;-65
2023/01/08 12:29:51;;;;;;;21.60;20.70;;;23.10;62.80;;;;;;5034326;28;20973;-62
2023/01/08 12:32:30;;;;;;;21.63;20.63;;;23.20;63.50;;;;;;5034219;28;20457;-64
2023/01/08 12:35:02;;;;;;;21.37;20.47;;;23.20;62.40;;;;;;5034321;28;20518;-71
2023/01/08 12:37:35;;;;;;;22.07;21.07;;;23.10;62.50;;;;;;5033498;28;20451;-66
2023/01/08 12:40:11;;;;;;;21.40;20.50;;;23.20;63.20;;;;;;5034028;28;20449;-70